Time;durP1;ratioP1;P1;durP2;ratioP2;P2;SDS_P1;SDS_P2;PMS_P1;PMS_P2;Temp;Humidity;BMP_temperature;BMP_pressure;BME280_temperature;BME280_humidity;BME280_pressure;Samples;Min_cycle;Max_cycle;Signal;HPM_P1;HPM_P2
2021/01/18 00:00:37;;;;;;;0.30;0.30;;;;;;;-18.15;77.63;100783.95;1732638;81;21166;-48
2021/01/18 00:03:05;;;;;;;0.10;0.10;;;;;;;-18.17;77.68;100791.89;1732608;82;21165;-48
2021/01/18 00:05:34;;;;;;;0.23;0.23;;;;;;;-18.15;77.69;100787.87;1732191;81;21418;-49
2021/01/18 00:08:02;;;;;;;0.10;0.10;;;;;;;-18.22;77.60;100785.63;1727247;83;21447;-48
2021/01/18 00:10:29;;;;;;;0.20;0.20;;;;;;;-18.25;77.66;100789.69;1727154;81;21119;-48
2021/01/18 00:12:57;;;;;;;0.10;0.10;;;;;;;-18.24;77.71;100778.81;1727101;83;21186;-48
2021/01/18 00:15:24;;;;;;;0.10;0.10;;;;;;;-18.26;77.62;100782.80;1727209;81;21491;-48
2021/01/18 00:17:53;;;;;;;0.10;0.10;;;;;;;-18.30;77.61;100786.97;1727350;83;21122;-48
2021/01/18 00:20:22;;;;;;;0.10;0.10;;;;;;;-18.31;77.65;100779.61;1727229;81;21501;-49
2021/01/18 00:22:51;;;;;;;0.10;0.10;;;;;;;-18.32;77.63;100774.03;1727209;83;21142;-48
2021/01/18 00:25:22;;;;;;;0.20;0.20;;;;;;;-18.33;77.58;100767.11;1727063;81;21159;-48
2021/01/18 00:27:49;;;;;;;0.20;0.20;;;;;;;-18.38;77.51;100765.70;1727103;83;21206;-48
2021/01/18 00:30:23;;;;;;;0.73;0.73;;;;;;;-18.41;77.54;100776.31;1727071;81;21135;-49
2021/01/18 00:32:51;;;;;;;0.10;0.10;;;;;;;-18.48;77.41;100765.38;1726696;83;21118;-48
2021/01/18 00:35:19;;;;;;;0.13;0.13;;;;;;;-18.57;77.39;100766.72;1727195;81;21387;-48
2021/01/18 00:37:51;;;;;;;0.10;0.10;;;;;;;-18.61;77.44;100772.21;1727085;82;21161;-49
2021/01/18 00:40:21;;;;;;;1.55;1.45;;;;;;;-18.66;77.36;100770.69;1727265;81;28450;-48
2021/01/18 00:42:49;;;;;;;0.10;0.10;;;;;;;-18.73;77.35;100775.86;1727012;82;21129;-48
2021/01/18 00:45:18;;;;;;;0.10;0.10;;;;;;;-18.78;77.36;100770.56;1727167;81;21391;-48
2021/01/18 00:47:49;;;;;;;0.10;0.10;;;;;;;-18.83;77.29;100773.41;1727112;82;21671;-49
2021/01/18 00:50:20;;;;;;;0.10;0.10;;;;;;;-18.89;77.19;100773.73;1702527;82;21154;-48
2021/01/18 00:52:51;;;;;;;0.10;0.10;;;;;;;-18.97;77.12;100778.52;1706222;83;26246;-49
2021/01/18 00:55:22;;;;;;;0.20;0.20;;;;;;;-19.12;77.17;100763.25;1735097;81;21604;-48
2021/01/18 00:58:19;;;;;;;0.10;0.10;;;;;;;-19.05;77.14;100766.37;1887518;76;27396;-49
2021/01/18 01:00:48;;;;;;;0.10;0.10;;;;;;;-19.14;77.13;100771.61;1781630;80;21119;-49
2021/01/18 01:03:16;;;;;;;0.10;0.10;;;;;;;-19.19;77.07;100780.13;1784547;80;21190;-48
2021/01/18 01:05:44;;;;;;;0.10;0.10;;;;;;;-19.24;76.97;100778.23;1784443;80;21229;-49
2021/01/18 01:08:11;;;;;;;0.10;0.10;;;;;;;-19.32;76.93;100773.42;1784791;80;21703;-49
2021/01/18 01:10:39;;;;;;;0.60;0.37;;;;;;;-19.37;76.93;100772.36;1784862;80;21127;-49
2021/01/18 01:13:08;;;;;;;0.20;0.20;;;;;;;-19.42;76.86;100785.25;1785083;80;21604;-49
2021/01/18 01:15:36;;;;;;;0.77;0.77;;;;;;;-19.47;76.88;100782.05;1785012;80;21151;-49
2021/01/18 01:18:04;;;;;;;0.10;0.10;;;;;;;-19.50;76.94;100791.31;1784814;80;21199;-49
2021/01/18 01:20:32;;;;;;;0.20;0.20;;;;;;;-19.52;76.99;100780.50;1785013;80;21458;-49
2021/01/18 01:22:59;;;;;;;0.10;0.10;;;;;;;-19.57;76.91;100773.87;1784586;80;21164;-49
2021/01/18 01:25:27;;;;;;;0.20;0.20;;;;;;;-19.62;76.88;100774.09;1785113;80;21108;-49
2021/01/18 01:27:56;;;;;;;0.13;0.13;;;;;;;-19.65;76.93;100783.84;1784953;80;21143;-48
2021/01/18 01:30:24;;;;;;;0.10;0.10;;;;;;;-19.65;76.95;100792.48;1784783;80;21163;-49
2021/01/18 01:32:53;;;;;;;0.10;0.10;;;;;;;-19.67;76.95;100780.50;1785035;80;21153;-49
2021/01/18 01:35:25;;;;;;;0.10;0.10;;;;;;;-19.68;76.93;100787.44;1785115;80;21135;-49
2021/01/18 01:37:53;;;;;;;0.10;0.10;;;;;;;-19.68;76.93;100777.03;1785145;80;21126;-49
2021/01/18 01:40:21;;;;;;;0.10;0.10;;;;;;;-19.72;76.85;100776.83;1785174;80;21182;-49
2021/01/18 01:42:48;;;;;;;0.10;0.10;;;;;;;-19.77;76.87;100777.52;1785027;80;21139;-49
2021/01/18 01:45:17;;;;;;;0.20;0.20;;;;;;;-19.78;76.86;100788.39;1764711;80;21134;-49
2021/01/18 01:47:48;;;;;;;0.20;0.20;;;;;;;-19.78;76.79;100783.63;1768624;81;21134;-49
2021/01/18 01:50:29;;;;;;;0.10;0.10;;;;;;;-19.80;76.82;100785.45;1768815;80;21142;-49
2021/01/18 01:53:07;;;;;;;0.30;0.30;;;;;;;-19.78;76.87;100784.92;1784926;80;21192;-49
2021/01/18 01:55:34;;;;;;;0.30;0.30;;;;;;;-19.76;76.82;100779.19;1784004;80;21148;-49
2021/01/18 01:58:04;;;;;;;0.20;0.20;;;;;;;-19.77;76.80;100787.92;1784856;80;21168;-48
2021/01/18 02:00:38;;;;;;;0.10;0.10;;;;;;;-19.76;76.84;100785.70;1784941;80;21098;-49
2021/01/18 02:03:23;;;;;;;0.10;0.10;;;;;;;-19.74;76.85;100776.05;1784960;80;21132;-49
2021/01/18 02:05:53;;;;;;;0.20;0.20;;;;;;;-19.70;76.86;100788.44;1784937;80;21610;-50
2021/01/18 02:08:19;;;;;;;0.10;0.10;;;;;;;-19.67;76.89;100783.94;1784585;80;21444;-48
2021/01/18 02:10:47;;;;;;;0.13;0.13;;;;;;;-19.63;77.02;100776.33;1784438;80;21137;-49
2021/01/18 02:13:47;;;;;;;1.03;1.03;;;;;;;-19.57;77.17;100777.77;1784370;80;21132;-49
2021/01/18 02:16:39;;;;;;;0.17;0.17;;;;;;;-19.49;77.21;100781.27;1784418;80;21152;-48
2021/01/18 02:19:39;;;;;;;0.20;0.20;;;;;;;-19.40;77.30;100782.11;1784517;80;21736;-49
2021/01/18 02:22:20;;;;;;;0.83;0.83;;;;;;;-19.30;77.31;100783.31;1784512;80;21125;-48
2021/01/18 02:25:11;;;;;;;0.40;0.40;;;;;;;-19.22;77.18;100786.80;1784637;80;21160;-48
2021/01/18 02:28:16;;;;;;;0.20;0.20;;;;;;;-19.22;77.13;100781.59;1784322;80;21112;-49
2021/01/18 02:31:21;;;;;;;0.30;0.30;;;;;;;-19.21;76.99;100789.78;1784416;80;21132;-49
2021/01/18 02:34:29;;;;;;;0.80;0.80;;;;;;;-19.20;77.03;100785.80;1770574;80;21492;-49
2021/01/18 02:37:13;;;;;;;0.37;0.37;;;;;;;-19.22;76.90;100787.64;1784324;80;21148;-49
2021/01/18 02:40:07;;;;;;;0.30;0.30;;;;;;;-19.23;76.95;100793.78;1784507;80;21176;-49
2021/01/18 02:42:46;;;;;;;0.30;0.30;;;;;;;-19.24;76.88;100791.25;1784456;80;21423;-49
2021/01/18 02:45:22;;;;;;;0.43;0.43;;;;;;;-19.19;77.03;100793.98;1826877;76;27823;-49
2021/01/18 02:47:49;;;;;;;0.20;0.20;;;;;;;-19.17;77.08;100797.35;1786149;80;21129;-49
2021/01/18 02:50:18;;;;;;;1.03;0.93;;;;;;;-19.14;77.05;100794.58;1755895;80;21125;-49
2021/01/18 02:52:45;;;;;;;0.20;0.20;;;;;;;-19.11;77.10;100794.44;1786086;80;21723;-48
2021/01/18 02:55:16;;;;;;;0.10;0.10;;;;;;;-19.06;77.19;100797.24;1786081;78;21106;-49
2021/01/18 02:57:48;;;;;;;0.10;0.10;;;;;;;-19.02;77.14;100803.52;1786309;80;21130;-49
2021/01/18 03:00:19;;;;;;;0.10;0.10;;;;;;;-18.95;77.22;100800.13;1786124;78;21177;-49
2021/01/18 03:03:19;;;;;;;0.10;0.10;;;;;;;-18.92;77.12;100803.87;1786402;80;21560;-50
2021/01/18 03:06:00;;;;;;;0.10;0.10;;;;;;;-18.89;77.13;100798.48;1786130;78;21170;-49
2021/01/18 03:08:33;;;;;;;0.10;0.10;;;;;;;-18.88;77.12;100788.45;1786261;80;21576;-49
2021/01/18 03:11:04;;;;;;;0.10;0.10;;;;;;;-18.87;77.14;100789.66;1786198;78;21150;-49
2021/01/18 03:13:38;;;;;;;;;;;;;;;-18.83;77.20;100792.13;1788749;80;21138;-48
2021/01/18 03:16:19;;;;;;;0.10;0.10;;;;;;;-18.82;77.21;100785.50;1785019;78;20324;-49
2021/01/18 03:18:48;;;;;;;0.10;0.10;;;;;;;-18.80;77.23;100788.04;1786215;78;21006;-48
2021/01/18 03:21:16;;;;;;;0.10;0.10;;;;;;;-18.81;77.24;100788.51;1786040;80;21098;-49
2021/01/18 03:23:43;;;;;;;1.33;1.23;;;;;;;-18.79;77.26;100792.31;1786110;80;22144;-49
2021/01/18 03:26:11;;;;;;;0.10;0.10;;;;;;;-18.78;77.27;100793.55;1786135;78;21146;-49
2021/01/18 03:28:39;;;;;;;0.13;0.13;;;;;;;-18.79;77.17;100790.55;1786100;80;21675;-49
2021/01/18 03:31:06;;;;;;;0.13;0.13;;;;;;;-18.82;77.17;100788.11;1786138;78;21003;-49
2021/01/18 03:33:33;;;;;;;0.40;0.40;;;;;;;-18.83;77.22;100778.63;1786006;80;21098;-49
2021/01/18 03:36:01;;;;;;;0.10;0.10;;;;;;;-18.81;77.24;100791.11;1786139;78;21719;-49
2021/01/18 03:38:29;;;;;;;0.10;0.10;;;;;;;-18.79;77.24;100793.15;1786155;80;21197;-49
2021/01/18 03:40:56;;;;;;;0.10;0.10;;;;;;;-18.78;77.23;100793.55;1786297;78;21157;-49
2021/01/18 03:43:24;;;;;;;0.00;0.00;;;;;;;-18.76;77.19;100800.83;1785921;80;21145;-49
2021/01/18 03:45:51;;;;;;;0.10;0.10;;;;;;;-18.79;77.12;100800.13;1786038;78;21113;-48
2021/01/18 03:48:19;;;;;;;0.10;0.10;;;;;;;-18.83;77.03;100798.64;1785962;80;21130;-49
2021/01/18 03:50:48;;;;;;;0.20;0.20;;;;;;;-18.89;76.86;100795.88;1786184;78;21157;-49
2021/01/18 03:53:16;;;;;;;0.10;0.10;;;;;;;-19.04;76.60;100799.31;1756334;80;21176;-48
2021/01/18 03:55:47;;;;;;;0.10;0.10;;;;;;;-19.18;76.61;100803.50;1785685;78;21552;-49
2021/01/18 03:58:14;;;;;;;0.20;0.20;;;;;;;-19.27;76.64;100801.83;1785483;80;21597;-49
2021/01/18 04:00:41;;;;;;;0.10;0.10;;;;;;;-19.34;76.63;100806.51;1785475;78;21110;-49
2021/01/18 04:03:09;;;;;;;0.10;0.10;;;;;;;-19.43;76.57;100813.48;1785547;80;21114;-49
2021/01/18 04:05:37;;;;;;;0.00;0.00;;;;;;;-19.52;76.60;100815.65;1785498;78;21170;-49
2021/01/18 04:08:05;;;;;;;0.20;0.20;;;;;;;-19.56;76.68;100812.81;1785396;80;21524;-49
2021/01/18 04:10:33;;;;;;;0.10;0.10;;;;;;;-19.59;76.70;100815.58;1785514;78;21450;-49
2021/01/18 04:13:00;;;;;;;0.10;0.10;;;;;;;-19.60;76.78;100818.28;1785392;80;21110;-49
2021/01/18 04:15:28;;;;;;;0.10;0.10;;;;;;;-19.58;76.81;100808.60;1785469;79;21125;-49
2021/01/18 04:17:56;;;;;;;0.30;0.30;;;;;;;-19.57;76.81;100814.20;1785447;80;21604;-49
2021/01/18 04:20:24;;;;;;;0.13;0.13;;;;;;;-19.57;76.78;100817.65;1785566;78;21141;-49
2021/01/18 04:22:56;;;;;;;0.13;0.13;;;;;;;-19.57;76.82;100821.55;1785649;80;21086;-49
2021/01/18 04:25:25;;;;;;;;;;;;;;;-19.55;76.87;100819.72;1788024;79;21429;-49
2021/01/18 04:27:55;;;;;;;0.10;0.10;;;;;;;-19.52;76.84;100822.16;1785620;80;20264;-49
2021/01/18 04:30:24;;;;;;;0.20;0.20;;;;;;;-19.50;76.85;100829.06;1785522;78;21255;-49
2021/01/18 04:32:58;;;;;;;0.20;0.20;;;;;;;-19.49;76.89;100821.16;1785378;80;21134;-48
2021/01/18 04:35:27;;;;;;;0.10;0.10;;;;;;;-19.47;76.88;100827.60;1784936;78;21153;-48
2021/01/18 04:37:54;;;;;;;0.20;0.20;;;;;;;-19.47;76.87;100831.50;1785026;80;21940;-49
2021/01/18 04:40:25;;;;;;;0.10;0.10;;;;;;;-19.46;76.81;100833.17;1784915;78;21188;-48
2021/01/18 04:42:52;;;;;;;0.10;0.10;;;;;;;-19.45;76.86;100836.18;1784902;80;21104;-49
2021/01/18 04:45:22;;;;;;;0.20;0.20;;;;;;;-19.44;76.84;100839.16;1791426;78;21129;-49
2021/01/18 04:47:51;;;;;;;0.20;0.20;;;;;;;-19.44;76.83;100839.98;1793775;79;21125;-49
2021/01/18 04:50:24;;;;;;;0.10;0.10;;;;;;;-19.41;76.84;100842.89;1793760;78;21169;-48
2021/01/18 04:52:54;;;;;;;0.10;0.10;;;;;;;-19.36;76.93;100837.86;1793760;79;21126;-49
2021/01/18 04:55:34;;;;;;;0.20;0.20;;;;;;;-19.28;76.97;100836.16;1794459;78;21172;-48
2021/01/18 04:58:10;;;;;;;0.13;0.13;;;;;;;-19.22;77.00;100848.84;1794229;79;21140;-49
2021/01/18 05:00:47;;;;;;;1.10;0.53;;;;;;;-19.15;77.05;100846.31;1794456;78;21472;-49
2021/01/18 05:03:18;;;;;;;1.30;0.97;;;;;;;-19.10;76.99;100848.67;1794220;79;21114;-49
2021/01/18 05:06:09;;;;;;;0.13;0.13;;;;;;;-19.09;76.93;100861.60;1792406;78;21133;-49
2021/01/18 05:09:20;;;;;;;0.10;0.10;;;;;;;-19.06;76.96;100861.06;1794346;79;21121;-49
2021/01/18 05:11:48;;;;;;;0.10;0.10;;;;;;;-19.00;77.09;100869.41;1794458;79;21153;-48
2021/01/18 05:14:16;;;;;;;0.10;0.10;;;;;;;-18.93;77.10;100869.95;1794253;78;21125;-49
2021/01/18 05:16:55;;;;;;;1.20;1.20;;;;;;;-18.91;77.02;100872.02;1794422;79;21548;-49
2021/01/18 05:19:24;;;;;;;0.23;0.23;;;;;;;-18.90;76.95;100876.29;1794356;78;21133;-49
2021/01/18 05:21:52;;;;;;;0.10;0.10;;;;;;;-18.90;77.04;100871.08;1794375;79;22152;-49
2021/01/18 05:24:20;;;;;;;0.17;0.17;;;;;;;-18.85;77.11;100876.89;1794299;78;21130;-49
2021/01/18 05:27:03;;;;;;;0.10;0.10;;;;;;;-18.80;77.11;100868.83;1794581;79;21643;-49
2021/01/18 05:29:32;;;;;;;0.20;0.20;;;;;;;-18.77;77.10;100875.17;1794122;78;21082;-49
2021/01/18 05:31:59;;;;;;;0.10;0.10;;;;;;;-18.78;77.00;100870.44;1794364;79;21556;-49
2021/01/18 05:34:28;;;;;;;0.10;0.10;;;;;;;-18.80;76.96;100868.36;1794248;78;21679;-49
2021/01/18 05:36:56;;;;;;;0.20;0.20;;;;;;;-18.83;76.97;100872.45;1794330;79;21138;-49
2021/01/18 05:39:32;;;;;;;1.20;1.10;;;;;;;-18.82;77.12;100876.72;1794307;78;21207;-49
2021/01/18 05:41:59;;;;;;;1.93;1.83;;;;;;;-18.79;77.17;100880.46;1794312;79;21142;-49
2021/01/18 05:44:37;;;;;;;0.10;0.10;;;;;;;-18.76;77.24;100872.50;1794247;78;21122;-49
2021/01/18 05:47:07;;;;;;;0.13;0.13;;;;;;;-18.74;77.27;100873.23;1794282;79;21560;-49
2021/01/18 05:49:48;;;;;;;0.20;0.20;;;;;;;-18.70;77.37;100878.64;1794227;78;21149;-49
2021/01/18 05:52:26;;;;;;;0.57;0.57;;;;;;;-18.63;77.36;100892.67;1794500;79;21445;-49
2021/01/18 05:55:22;;;;;;;0.10;0.10;;;;;;;-18.63;77.36;100892.67;1793431;78;21520;-49
2021/01/18 05:57:55;;;;;;;0.10;0.10;;;;;;;-18.60;77.50;100897.72;1794116;79;21098;-49
2021/01/18 06:00:36;;;;;;;0.20;0.20;;;;;;;-18.56;77.50;100895.34;1794266;78;21137;-49
2021/01/18 06:03:08;;;;;;;0.10;0.10;;;;;;;-18.53;77.58;100901.22;1794438;79;21149;-48
2021/01/18 06:05:38;;;;;;;0.10;0.10;;;;;;;-18.46;77.64;100901.73;1794337;78;21154;-48
2021/01/18 06:08:16;;;;;;;0.10;0.10;;;;;;;-18.43;77.67;100906.78;1794520;79;21141;-49
2021/01/18 06:10:49;;;;;;;0.40;0.40;;;;;;;-18.38;77.71;100914.36;1794380;78;21891;-49
2021/01/18 06:13:29;;;;;;;0.10;0.10;;;;;;;-18.34;77.70;100919.33;1794448;79;21164;-49
2021/01/18 06:16:09;;;;;;;0.10;0.10;;;;;;;-18.31;77.76;100910.03;1794349;78;20995;-49
2021/01/18 06:18:40;;;;;;;0.10;0.10;;;;;;;-18.24;77.80;100912.69;1794349;79;21184;-48
2021/01/18 06:21:10;;;;;;;0.10;0.10;;;;;;;-18.16;77.92;100917.95;1794211;78;21544;-49
2021/01/18 06:23:40;;;;;;;0.10;0.10;;;;;;;-18.10;77.96;100911.91;1794336;79;21667;-49
2021/01/18 06:26:08;;;;;;;0.10;0.10;;;;;;;-18.02;78.03;100904.99;1794181;78;21040;-49
2021/01/18 06:28:37;;;;;;;0.10;0.10;;;;;;;-17.94;78.11;100913.22;1794253;79;21633;-49
2021/01/18 06:31:06;;;;;;;0.10;0.10;;;;;;;-17.89;78.13;100913.81;1794067;78;21141;-49
2021/01/18 06:33:48;;;;;;;0.10;0.10;;;;;;;-17.85;78.18;100909.24;1794302;79;21126;-49
2021/01/18 06:36:24;;;;;;;0.10;0.10;;;;;;;-17.80;78.25;100916.34;1790718;79;21109;-49
2021/01/18 06:39:03;;;;;;;0.20;0.20;;;;;;;-17.74;78.38;100913.38;1794281;78;21129;-49
2021/01/18 06:41:34;;;;;;;0.10;0.10;;;;;;;-17.66;78.51;100911.64;1794096;79;21114;-49
2021/01/18 06:44:03;;;;;;;0.13;0.13;;;;;;;-17.57;78.62;100922.88;1794339;78;21117;-49
2021/01/18 06:46:34;;;;;;;2.27;1.70;;;;;;;-17.50;78.64;100923.34;1785643;79;21110;-49
2021/01/18 06:49:02;;;;;;;2.70;2.23;;;;;;;-17.45;78.70;100928.70;1785164;80;21114;-49
2021/01/18 06:51:30;;;;;;;0.10;0.10;;;;;;;-17.41;78.68;100914.51;1785247;80;21149;-49
2021/01/18 06:53:59;;;;;;;0.10;0.10;;;;;;;-17.37;78.66;100913.41;1771692;80;21158;-49
2021/01/18 06:56:41;;;;;;;0.27;0.27;;;;;;;-17.31;78.66;100912.68;1781857;80;21173;-49
2021/01/18 06:59:34;;;;;;;0.72;0.72;;;;;;;-17.27;78.67;100910.28;1772788;78;21720;-49
2021/01/18 07:02:29;;;;;;;0.10;0.10;;;;;;;-17.21;78.69;100909.91;1785229;80;21118;-49
2021/01/18 07:05:08;;;;;;;0.10;0.10;;;;;;;-17.17;78.59;100910.94;1785012;78;21169;-49
2021/01/18 07:07:37;;;;;;;6.53;2.73;;;;;;;-17.16;78.52;100917.00;1784095;80;21181;-49
2021/01/18 07:10:09;;;;;;;0.13;0.13;;;;;;;-17.15;78.49;100923.93;1783680;78;21142;-49
2021/01/18 07:12:37;;;;;;;0.20;0.20;;;;;;;-17.13;78.46;100915.06;1781183;80;21156;-49
2021/01/18 07:15:07;;;;;;;2.50;2.30;;;;;;;-17.08;78.46;100916.11;1775661;77;21127;-49
2021/01/18 07:17:53;;;;;;;0.10;0.10;;;;;;;-17.04;78.41;100913.67;1771771;80;21461;-49
2021/01/18 07:20:27;;;;;;;0.10;0.10;;;;;;;-16.98;78.49;100919.85;1757858;80;21180;-49
2021/01/18 07:23:13;;;;;;;0.10;0.10;;;;;;;-16.87;78.57;100918.37;1778494;80;21363;-49
2021/01/18 07:25:45;;;;;;;0.10;0.10;;;;;;;-16.79;78.53;100914.81;1753929;80;21169;-49
2021/01/18 07:28:18;;;;;;;0.20;0.20;;;;;;;-16.68;78.61;100916.30;1774295;80;21150;-49
2021/01/18 07:30:48;;;;;;;0.10;0.10;;;;;;;-16.57;78.67;100906.48;1781430;79;21453;-48
2021/01/18 07:33:17;;;;;;;0.27;0.27;;;;;;;-16.48;78.41;100915.91;1779554;78;21147;-48
2021/01/18 07:35:46;;;;;;;0.87;0.87;;;;;;;-16.44;78.31;100910.04;1813156;78;21118;-49
2021/01/18 07:38:19;;;;;;;0.47;0.47;;;;;;;-16.38;78.40;100908.81;1773401;80;21375;-49
2021/01/18 07:41:11;;;;;;;0.17;0.17;;;;;;;-16.33;78.22;100916.73;1752078;80;21114;-49
2021/01/18 07:43:43;;;;;;;0.10;0.10;;;;;;;-16.27;78.31;100913.76;1752600;80;21166;-48
2021/01/18 07:46:33;;;;;;;0.10;0.10;;;;;;;-16.17;78.47;100915.30;1784121;79;21125;-48
2021/01/18 07:49:24;;;;;;;0.40;0.40;;;;;;;-16.03;78.58;100919.68;1793711;78;21134;-49
2021/01/18 07:51:53;;;;;;;0.10;0.10;;;;;;;-15.87;78.50;100924.33;1792542;79;21481;-48
2021/01/18 07:54:31;;;;;;;0.10;0.10;;;;;;;-15.75;78.46;100929.22;1742974;79;21145;-48
2021/01/18 07:57:31;;;;;;;0.10;0.10;;;;;;;-15.65;78.43;100935.55;1792404;79;21097;-48
2021/01/18 08:00:24;;;;;;;0.20;0.20;;;;;;;-15.53;78.01;100937.82;1794226;78;21519;-48
2021/01/18 08:02:57;;;;;;;0.10;0.10;;;;;;;-15.47;77.93;100932.67;1791740;79;21765;-48
2021/01/18 08:05:36;;;;;;;0.10;0.10;;;;;;;-15.32;77.95;100943.93;1790643;79;21125;-48
2021/01/18 08:08:09;;;;;;;0.10;0.10;;;;;;;-15.22;77.69;100950.25;1794030;79;21126;-48
2021/01/18 08:10:54;;;;;;;0.10;0.10;;;;;;;-15.16;77.44;100954.59;1793723;78;21547;-48
2021/01/18 08:13:57;;;;;;;0.10;0.10;;;;;;;-15.11;77.33;100963.47;1785554;79;21656;-48
2021/01/18 08:16:40;;;;;;;1.50;1.40;;;;;;;-15.02;77.36;100966.80;1790525;79;21464;-48
2021/01/18 08:19:24;;;;;;;0.10;0.10;;;;;;;-14.90;77.22;100963.00;1793698;78;21588;-48
2021/01/18 08:22:04;;;;;;;0.10;0.10;;;;;;;-14.83;77.08;100966.89;1788468;79;21156;-48
2021/01/18 08:24:37;;;;;;;0.10;0.10;;;;;;;-14.79;76.66;100966.55;1793659;79;21532;-48
2021/01/18 08:27:07;;;;;;;0.10;0.10;;;;;;;-14.77;76.56;100962.05;1793908;79;21137;-48
2021/01/18 08:29:48;;;;;;;0.33;0.33;;;;;;;-14.70;76.26;100965.11;1794250;78;21118;-48
2021/01/18 08:32:36;;;;;;;0.23;0.23;;;;;;;-14.68;75.98;100962.39;1793140;79;21110;-48
2021/01/18 08:35:21;;;;;;;1.07;0.97;;;;;;;-14.66;75.80;100963.11;1785086;78;21507;-48
2021/01/18 08:38:12;;;;;;;0.10;0.10;;;;;;;-14.60;75.87;100956.14;1794319;79;21121;-48
2021/01/18 08:40:49;;;;;;;0.10;0.10;;;;;;;-14.49;75.72;100957.98;1793459;78;21113;-48
2021/01/18 08:43:20;;;;;;;0.10;0.10;;;;;;;-14.41;75.72;100949.97;1794215;78;21142;-49
2021/01/18 08:45:53;;;;;;;0.10;0.10;;;;;;;-14.34;75.62;100951.22;1790245;79;21126;-49
2021/01/18 08:48:24;;;;;;;0.43;0.43;;;;;;;-14.28;75.31;100952.57;1779504;80;21151;-48
2021/01/18 08:50:55;;;;;;;0.10;0.10;;;;;;;-14.26;75.20;100941.98;1774465;78;21549;-48
2021/01/18 08:53:40;;;;;;;0.10;0.10;;;;;;;-14.22;74.97;100944.73;1786516;80;21126;-48
2021/01/18 08:56:27;;;;;;;0.20;0.20;;;;;;;-14.18;74.98;100935.22;1783433;80;21685;-48
2021/01/18 08:58:54;;;;;;;0.23;0.23;;;;;;;-14.10;74.54;100935.98;1765976;78;21165;-48
2021/01/18 09:01:26;;;;;;;0.37;0.37;;;;;;;-14.05;74.33;100932.56;1784435;80;21169;-48
2021/01/18 09:04:02;;;;;;;13.40;0.93;;;;;;;-14.01;74.14;100927.47;1784514;80;21146;-48
2021/01/18 09:06:32;;;;;;;1.67;1.57;;;;;;;-13.97;74.14;100930.25;1784432;80;21655;-48
2021/01/18 09:09:07;;;;;;;0.10;0.10;;;;;;;-13.87;73.96;100920.75;1783879;78;21109;-48
2021/01/18 09:11:37;;;;;;;0.10;0.10;;;;;;;-13.78;73.82;100916.61;1754639;80;21149;-48
2021/01/18 09:14:04;;;;;;;0.10;0.10;;;;;;;-13.70;73.64;100926.56;1785181;78;21086;-48
2021/01/18 09:16:31;;;;;;;2.77;1.75;;;;;;;-13.62;73.33;100924.23;1754586;80;21166;-49
2021/01/18 09:19:05;;;;;;;0.33;0.33;;;;;;;-13.59;73.16;100910.86;1771812;78;21114;-49
2021/01/18 09:21:35;;;;;;;0.10;0.10;;;;;;;-13.52;73.07;100908.16;1785311;80;21130;-49
2021/01/18 09:24:09;;;;;;;0.20;0.20;;;;;;;-13.44;72.79;100912.36;1785345;78;21102;-50
2021/01/18 09:26:37;;;;;;;0.20;0.20;;;;;;;-13.44;72.44;100909.73;1784986;80;21137;-49
2021/01/18 09:29:05;;;;;;;2.40;2.10;;;;;;;-13.44;72.15;100909.73;1770864;80;21114;-49
2021/01/18 09:31:32;;;;;;;0.20;0.20;;;;;;;-13.41;71.80;100902.57;1784963;80;21586;-49
2021/01/18 09:34:13;;;;;;;0.15;0.15;;;;;;;-13.39;71.74;100903.30;1785057;78;21125;-49
2021/01/18 09:36:43;;;;;;;0.20;0.20;;;;;;;-13.41;71.42;100905.20;1773063;80;21127;-49
2021/01/18 09:39:19;;;;;;;0.10;0.10;;;;;;;-13.42;71.22;100903.05;1770811;80;21227;-49
2021/01/18 09:41:50;;;;;;;0.30;0.30;;;;;;;-13.43;71.05;100899.56;1779629;80;21541;-49
2021/01/18 09:44:18;;;;;;;2.67;1.60;;;;;;;-13.49;70.68;100898.72;1779912;78;21137;-49
2021/01/18 09:46:45;;;;;;;0.20;0.20;;;;;;;-13.54;70.69;100900.02;1754958;80;21507;-49
2021/01/18 09:49:13;;;;;;;1.10;0.87;;;;;;;-13.59;70.68;100907.41;1755219;80;21110;-49
2021/01/18 09:51:41;;;;;;;0.30;0.30;;;;;;;-13.64;70.61;100905.11;1730518;80;21573;-49
2021/01/18 09:54:10;;;;;;;0.30;0.30;;;;;;;-13.65;70.74;100895.52;1730310;80;21238;-50
2021/01/18 09:56:37;;;;;;;0.10;0.10;;;;;;;-13.61;70.81;100903.56;1785392;80;21221;-49
2021/01/18 09:59:06;;;;;;;0.10;0.10;;;;;;;-13.56;70.90;100900.12;1744436;79;21102;-49
2021/01/18 10:01:34;;;;;;;0.10;0.10;;;;;;;-13.46;71.04;100902.91;1781977;80;21154;-49
2021/01/18 10:04:05;;;;;;;0.17;0.17;;;;;;;-13.41;70.82;100898.14;1725936;80;21114;-49
2021/01/18 10:06:34;;;;;;;0.20;0.20;;;;;;;-13.37;70.91;100898.77;1754956;80;21130;-49
2021/01/18 10:09:05;;;;;;;0.20;0.20;;;;;;;-13.34;70.83;100895.91;1797040;78;21575;-49
2021/01/18 10:11:43;;;;;;;0.10;0.10;;;;;;;-13.29;70.72;100887.20;1785628;80;29105;-48
2021/01/18 10:14:24;;;;;;;0.10;0.10;;;;;;;-13.26;70.50;100891.70;1780793;78;21229;-49
2021/01/18 10:17:05;;;;;;;0.10;0.10;;;;;;;-13.26;70.64;100890.87;1784758;80;21137;-48
2021/01/18 10:19:35;;;;;;;2.27;2.17;;;;;;;-13.22;70.74;100890.53;1784792;78;21098;-49
2021/01/18 10:22:06;;;;;;;0.10;0.10;;;;;;;-13.20;70.50;100899.63;1785186;80;21141;-49
2021/01/18 10:24:34;;;;;;;0.10;0.10;;;;;;;-13.21;70.29;100899.25;1778943;78;21111;-49
2021/01/18 10:27:10;;;;;;;0.55;0.55;;;;;;;-13.30;69.85;100895.57;1785406;80;21394;-49
2021/01/18 10:29:38;;;;;;;0.20;0.20;;;;;;;-13.39;69.90;100890.98;1784871;78;21110;-49
2021/01/18 10:32:05;;;;;;;0.20;0.20;;;;;;;-13.41;69.92;100894.69;1783939;78;21154;-49
2021/01/18 10:34:34;;;;;;;0.97;0.97;;;;;;;-13.39;70.02;100890.16;1784926;78;21131;-48
2021/01/18 10:37:19;;;;;;;0.10;0.10;;;;;;;-13.37;70.07;100895.66;1780814;80;21544;-49
2021/01/18 10:39:46;;;;;;;;;;;;;;;-13.29;70.09;100895.09;1788011;80;21157;-48
2021/01/18 10:42:16;;;;;;;0.10;0.10;;;;;;;-13.23;70.04;100886.69;1785913;78;20260;-49
2021/01/18 10:44:55;;;;;;;0.10;0.10;;;;;;;-13.16;69.98;100876.08;1783366;80;21169;-49
2021/01/18 10:47:25;;;;;;;0.37;0.37;;;;;;;-13.06;70.06;100877.53;1774496;80;21171;-49
2021/01/18 10:49:58;;;;;;;0.10;0.10;;;;;;;-13.01;69.80;100882.80;1789632;80;21545;-49
2021/01/18 10:52:37;;;;;;;1.98;1.25;;;;;;;-13.01;69.51;100884.11;1790011;80;22453;-49
2021/01/18 10:55:07;;;;;;;0.30;0.30;;;;;;;-12.99;69.70;100874.31;1749132;81;21182;-49
2021/01/18 10:57:45;;;;;;;0.65;0.65;;;;;;;-12.92;69.70;100876.01;1729376;82;21187;-49
2021/01/18 11:00:15;;;;;;;0.10;0.10;;;;;;;-12.91;69.65;100874.20;1791178;80;21629;-49
2021/01/18 11:03:01;;;;;;;0.10;0.10;;;;;;;-12.88;69.55;100881.86;1791325;80;21147;-49
2021/01/18 11:05:36;;;;;;;0.10;0.10;;;;;;;-12.82;69.75;100870.87;1769136;79;21098;-49
2021/01/18 11:08:06;;;;;;;1.30;1.20;;;;;;;-12.74;69.52;100872.44;1798061;78;21156;-49
2021/01/18 11:10:41;;;;;;;0.33;0.33;;;;;;;-12.69;69.46;100863.70;1796052;79;21125;-49
2021/01/18 11:13:19;;;;;;;0.20;0.20;;;;;;;-12.64;69.45;100857.59;1777400;79;21089;-49
2021/01/18 11:15:48;;;;;;;0.20;0.20;;;;;;;-12.56;69.42;100857.86;1770879;79;21137;-49
2021/01/18 11:18:22;;;;;;;0.20;0.20;;;;;;;-12.47;69.25;100850.19;1789782;78;21086;-49
2021/01/18 11:20:53;;;;;;;0.10;0.10;;;;;;;-12.39;69.21;100851.72;1790037;79;21426;-49
2021/01/18 11:23:21;;;;;;;0.25;0.25;;;;;;;-12.29;68.76;100853.15;1791391;78;21556;-49
2021/01/18 11:25:49;;;;;;;0.10;0.10;;;;;;;-12.23;68.73;100854.83;1790960;79;21127;-49
2021/01/18 11:28:17;;;;;;;0.20;0.20;;;;;;;-12.15;68.51;100850.26;1780696;80;21146;-49
2021/01/18 11:30:45;;;;;;;2.27;0.47;;;;;;;-12.15;68.25;100847.14;1792157;79;21406;-49
2021/01/18 11:33:13;;;;;;;0.10;0.10;;;;;;;-12.21;67.57;100848.96;1721163;82;21180;-49
2021/01/18 11:35:43;;;;;;;0.10;0.10;;;;;;;-12.31;67.72;100841.44;1735713;82;21188;-49
2021/01/18 11:38:14;;;;;;;0.10;0.10;;;;;;;-12.38;67.87;100839.77;1728630;82;21150;-49
2021/01/18 11:40:46;;;;;;;0.00;0.00;;;;;;;-12.37;67.62;100837.95;1694030;82;21115;-49
2021/01/18 11:43:14;;;;;;;0.40;0.40;;;;;;;-12.38;67.58;100836.30;1729356;82;21163;-49
2021/01/18 11:45:41;;;;;;;0.10;0.10;;;;;;;-12.39;67.28;100835.92;1737499;81;21519;-49